Terminal Aerodrome Forecast
Issued by NWS Grand Forks, ND

Home | Current Version | Previous Version | Text Only | Print | Product List | Glossary Off
Versions: 1 2 3 4 5 6 7 8 9 10 11 12 13 14 15 16 17 18 19 20 21 22

000
FTUS43 KFGF 230500
TAFGFK
TAF
KGFK 230522Z 2306/2406 17011KT 5SM BR OVC008
      TEMPO 2306/2310 2SM BR BKN004
     FM231400 26010KT P6SM BKN090
     FM232100 32020G27KT 4SM -SN BKN015=

USA.gov is the U.S. government's official web portal to all federal, state and local government web resources and services.